Time;durP1;ratioP1;P1;durP2;ratioP2;P2;SDS_P1;SDS_P2;PMS_P1;PMS_P2;Temp;Humidity;BMP_temperature;BMP_pressure;BME280_temperature;BME280_humidity;BME280_pressure;Samples;Min_cycle;Max_cycle;Signal;HPM_P1;HPM_P2
2024/02/20 00:02:16;;;;;;;5.35;1.70;;;;;;;18.52;46.53;102743.13;4998539;28;20068;-72
2024/02/20 00:04:42;;;;;;;6.93;1.93;;;;;;;18.33;46.32;102707.16;4999044;28;20104;-75
2024/02/20 00:07:07;;;;;;;7.25;2.30;;;;;;;18.46;46.16;102737.25;4999364;28;20328;-71
2024/02/20 00:09:33;;;;;;;7.93;2.03;;;;;;;18.40;46.11;102728.81;5000096;28;20041;-72
2024/02/20 00:12:00;;;;;;;8.10;2.15;;;;;;;18.47;46.25;102738.97;4998559;28;20483;-74
2024/02/20 00:14:26;;;;;;;6.50;1.95;;;;;;;18.41;46.20;102725.25;5000197;28;20168;-71
2024/02/20 00:16:52;;;;;;;5.78;1.77;;;;;;;18.39;46.08;102722.69;4999133;28;20720;-74
2024/02/20 00:19:18;;;;;;;9.63;2.67;;;;;;;18.48;45.72;102742.44;4999721;28;20384;-71
2024/02/20 00:21:43;;;;;;;7.20;2.17;;;;;;;18.44;45.99;102731.19;4999663;28;20096;-74
2024/02/20 00:24:09;;;;;;;6.50;1.92;;;;;;;18.33;45.98;102715.09;5000247;28;20109;-71
2024/02/20 00:26:34;;;;;;;6.05;1.83;;;;;;;18.28;45.92;102715.31;4998738;28;20156;-71
2024/02/20 00:28:59;;;;;;;6.90;1.95;;;;;;;18.35;45.95;102728.19;4998512;28;20116;-71
2024/02/20 00:31:28;;;;;;;6.68;1.98;;;;;;;18.39;45.78;102741.16;5000112;28;20506;-72
2024/02/20 00:33:53;;;;;;;8.73;2.42;;;;;;;18.34;45.92;102734.41;4998259;28;20030;-73
2024/02/20 00:36:18;;;;;;;7.07;2.00;;;;;;;18.26;46.14;102719.84;4999724;28;20060;-71
2024/02/20 00:38:43;;;;;;;7.37;2.00;;;;;;;18.28;45.83;102720.59;4998287;28;20885;-72
2024/02/20 00:41:09;;;;;;;6.35;2.25;;;;;;;18.26;45.80;102714.56;4999014;28;20263;-71
2024/02/20 00:43:34;;;;;;;5.97;1.90;;;;;;;18.36;45.79;102748.34;5000174;28;20656;-72
2024/02/20 00:46:01;;;;;;;6.97;2.20;;;;;;;18.23;45.66;102730.56;4998895;28;20117;-73
2024/02/20 00:48:26;;;;;;;6.65;2.10;;;;;;;18.29;45.87;102740.78;4999647;28;20650;-71
2024/02/20 00:50:51;;;;;;;7.78;2.20;;;;;;;18.19;45.68;102723.72;4980936;28;20026;-72
2024/02/20 00:53:17;;;;;;;8.07;2.25;;;;;;;18.28;45.86;102743.50;4999069;28;20091;-71
2024/02/20 00:55:42;;;;;;;6.60;2.53;;;;;;;18.28;45.66;102744.34;4999598;28;20037;-71
2024/02/20 00:58:08;;;;;;;6.75;2.30;;;;;;;18.31;45.78;102757.38;4997603;28;20492;-72
2024/02/20 01:00:33;;;;;;;5.75;1.98;;;;;;;18.18;45.80;102735.19;4998710;28;20057;-71
2024/02/20 01:02:59;;;;;;;8.23;1.92;;;;;;;18.30;46.12;102752.19;4997302;28;20031;-71
2024/02/20 01:05:24;;;;;;;7.78;2.17;;;;;;;18.18;45.77;102742.25;4999035;28;20048;-70
2024/02/20 01:07:49;;;;;;;6.32;2.10;;;;;;;18.29;45.55;102761.03;4980756;28;20026;-71
2024/02/20 01:10:16;;;;;;;8.35;2.05;;;;;;;18.23;45.69;102756.94;4981543;28;20121;-73
2024/02/20 01:12:42;;;;;;;6.15;1.95;;;;;;;18.25;45.51;102756.88;4998923;28;20037;-73
2024/02/20 01:15:08;;;;;;;8.32;2.20;;;;;;;18.20;45.49;102753.59;4981285;28;20528;-73
2024/02/20 01:17:33;;;;;;;5.95;2.00;;;;;;;18.23;45.60;102756.06;4999726;28;20129;-70
2024/02/20 01:19:58;;;;;;;6.95;2.17;;;;;;;18.10;45.50;102735.59;4999111;28;20037;-71
2024/02/20 01:22:24;;;;;;;5.57;1.90;;;;;;;18.24;45.54;102755.97;4998977;28;20494;-70
2024/02/20 01:24:49;;;;;;;7.43;1.95;;;;;;;17.84;45.49;102691.19;4998779;28;20695;-70
2024/02/20 01:27:15;;;;;;;6.35;2.10;;;;;;;18.10;45.47;102740.88;5001424;28;20480;-70
2024/02/20 01:29:43;;;;;;;6.68;2.17;;;;;;;18.09;45.68;102736.53;5002661;28;20045;-70
2024/02/20 01:32:08;;;;;;;8.75;2.58;;;;;;;18.15;45.49;102753.84;5001868;28;20030;-72
2024/02/20 01:34:33;;;;;;;6.72;2.00;;;;;;;18.09;45.51;102735.69;5003428;28;20072;-71
2024/02/20 01:36:58;;;;;;;6.75;1.88;;;;;;;18.01;45.49;102716.72;4984567;28;20439;-73
2024/02/20 01:39:24;;;;;;;7.10;1.70;;;;;;;18.04;45.59;102724.50;5001805;28;20088;-71
2024/02/20 01:41:49;;;;;;;6.70;1.92;;;;;;;18.15;45.65;102740.66;5002056;28;20286;-74
2024/02/20 01:44:16;;;;;;;7.47;2.20;;;;;;;18.06;45.46;102733.19;5002446;28;20124;-71
2024/02/20 01:46:41;;;;;;;7.82;1.80;;;;;;;18.11;45.18;102761.03;5002798;28;20042;-73
2024/02/20 01:49:07;;;;;;;6.65;2.03;;;;;;;18.09;45.26;102757.63;5002932;28;20045;-71
2024/02/20 01:51:35;;;;;;;6.85;2.17;;;;;;;18.14;45.20;102762.69;5002431;28;20034;-71
2024/02/20 01:54:03;;;;;;;6.05;1.85;;;;;;;18.03;45.43;102746.56;5002675;28;20111;-72
2024/02/20 01:56:28;;;;;;;7.45;1.90;;;;;;;18.07;45.64;102759.50;4983979;28;20034;-72
2024/02/20 01:58:54;;;;;;;8.57;1.90;;;;;;;18.11;45.59;102761.03;4999873;28;20079;-72
2024/02/20 02:01:22;;;;;;;6.07;1.55;;;;;;;18.00;45.35;102739.63;4985072;28;20041;-70
2024/02/20 02:03:48;;;;;;;6.10;1.80;;;;;;;18.07;45.29;102748.97;4999081;28;20041;-72
2024/02/20 02:06:13;;;;;;;7.82;2.30;;;;;;;18.09;45.30;102756.78;5002660;28;20057;-71
2024/02/20 02:08:38;;;;;;;8.38;2.05;;;;;;;18.09;45.42;102762.91;5001401;28;20030;-71
2024/02/20 02:11:04;;;;;;;7.47;2.38;;;;;;;18.08;45.47;102757.72;5000544;28;20124;-71
2024/02/20 02:13:29;;;;;;;6.35;1.92;;;;;;;18.00;45.47;102755.47;5001651;28;20484;-71
2024/02/20 02:15:55;;;;;;;6.20;2.20;;;;;;;18.04;45.44;102754.38;5002588;28;20434;-70
2024/02/20 02:18:20;;;;;;;6.28;2.40;;;;;;;17.97;45.64;102741.56;4984098;28;20274;-70
2024/02/20 02:20:46;;;;;;;5.97;2.05;;;;;;;17.98;45.61;102746.78;5002276;28;20030;-71
2024/02/20 02:23:11;;;;;;;6.35;2.00;;;;;;;17.90;45.37;102741.03;5002052;28;20029;-72
2024/02/20 02:25:36;;;;;;;7.25;1.75;;;;;;;17.98;45.65;102749.41;5001658;28;20029;-71
2024/02/20 02:28:02;;;;;;;9.57;1.77;;;;;;;18.06;45.65;102765.72;5002085;28;20030;-72
2024/02/20 02:30:28;;;;;;;9.13;2.15;;;;;;;17.88;45.83;102740.25;5001565;28;20038;-71
2024/02/20 02:32:53;;;;;;;7.82;2.05;;;;;;;17.94;45.49;102745.22;5001432;28;20480;-73
2024/02/20 02:35:19;;;;;;;8.40;2.20;;;;;;;17.91;45.55;102743.59;5002215;28;20033;-70
2024/02/20 02:37:44;;;;;;;6.25;1.80;;;;;;;18.02;45.54;102761.50;4983142;28;20404;-71
2024/02/20 02:40:11;;;;;;;7.45;2.08;;;;;;;18.06;45.86;102776.25;5001508;28;20034;-71
2024/02/20 02:42:37;;;;;;;8.77;2.05;;;;;;;17.95;45.36;102753.06;5001902;28;20044;-70
2024/02/20 02:45:04;;;;;;;5.95;1.70;;;;;;;18.06;45.43;102775.41;5001811;28;20030;-72
2024/02/20 02:47:29;;;;;;;7.57;1.92;;;;;;;17.99;45.34;102764.31;5001203;28;20048;-73
2024/02/20 02:49:55;;;;;;;8.65;2.55;;;;;;;17.94;45.26;102755.75;5000832;28;20030;-74
2024/02/20 02:52:21;;;;;;;6.10;1.95;;;;;;;18.02;45.42;102773.84;5000995;28;20674;-72
2024/02/20 02:54:46;;;;;;;5.28;1.58;;;;;;;17.93;45.28;102760.19;5001267;28;20511;-74
2024/02/20 02:57:12;;;;;;;8.77;2.00;;;;;;;17.83;45.52;102739.59;5001733;28;20040;-72
2024/02/20 02:59:37;;;;;;;6.53;1.73;;;;;;;18.02;45.27;102774.69;5001112;28;20034;-72
2024/02/20 03:02:03;;;;;;;8.47;2.10;;;;;;;17.98;45.40;102769.69;5000590;28;20034;-72
2024/02/20 03:04:32;;;;;;;5.80;1.70;;;;;;;18.01;45.20;102777.41;5000666;28;20721;-72
2024/02/20 03:06:58;;;;;;;6.93;1.80;;;;;;;17.94;45.31;102768.97;5000956;28;20306;-73
2024/02/20 03:09:24;;;;;;;6.53;1.75;;;;;;;17.95;45.64;102774.16;5001805;28;20041;-72
2024/02/20 03:11:49;;;;;;;7.63;1.75;;;;;;;17.98;45.54;102780.22;5001125;28;20030;-71
2024/02/20 03:14:16;;;;;;;7.70;2.10;;;;;;;17.95;45.30;102771.50;5001280;28;20439;-74
2024/02/20 03:16:42;;;;;;;6.50;1.70;;;;;;;17.87;45.46;102746.44;4983006;28;20290;-72
2024/02/20 03:19:07;;;;;;;7.78;2.17;;;;;;;17.92;45.29;102765.56;5001759;28;20042;-73
2024/02/20 03:21:33;;;;;;;7.72;1.70;;;;;;;17.83;45.46;102752.78;5000295;28;20553;-71
2024/02/20 03:23:58;;;;;;;8.55;2.25;;;;;;;17.86;45.16;102748.19;5001121;28;20191;-72
2024/02/20 03:26:26;;;;;;;7.95;2.25;;;;;;;17.94;45.31;102763.69;5001595;28;20453;-71
2024/02/20 03:28:52;;;;;;;7.50;1.98;;;;;;;17.88;45.24;102756.94;5000024;28;20036;-71
2024/02/20 03:31:17;;;;;;;6.20;1.60;;;;;;;17.92;45.53;102763.75;5001905;28;20499;-71
2024/02/20 03:33:43;;;;;;;6.75;1.88;;;;;;;17.92;45.38;102766.41;5001035;28;20038;-72
2024/02/20 03:36:08;;;;;;;6.53;1.95;;;;;;;17.82;45.32;102745.81;4999610;28;20040;-72
2024/02/20 03:38:33;;;;;;;6.78;1.88;;;;;;;17.82;45.25;102746.66;4983249;28;20029;-74
2024/02/20 03:40:58;;;;;;;5.88;1.50;;;;;;;17.79;45.12;102746.81;5000859;28;20033;-72
2024/02/20 03:43:24;;;;;;;7.07;1.65;;;;;;;17.85;45.19;102750.91;4999795;28;20036;-74
2024/02/20 03:45:50;;;;;;;5.90;1.95;;;;;;;17.83;45.43;102750.16;4999646;28;20034;-74
2024/02/20 03:48:15;;;;;;;6.22;1.70;;;;;;;17.82;45.19;102756.38;5000303;28;20177;-72
2024/02/20 03:50:40;;;;;;;5.97;1.95;;;;;;;17.88;45.14;102766.63;4999411;28;20479;-73
2024/02/20 03:53:06;;;;;;;5.38;1.60;;;;;;;17.75;45.42;102740.84;5000901;28;20026;-73
2024/02/20 03:55:31;;;;;;;5.00;1.42;;;;;;;17.76;45.63;102741.69;5000377;28;20033;-71
2024/02/20 03:57:57;;;;;;;5.93;1.77;;;;;;;17.74;45.21;102733.84;4999872;28;20034;-72
2024/02/20 04:00:25;;;;;;;6.20;1.60;;;;;;;17.85;45.41;102757.06;5000427;28;20033;-72
2024/02/20 04:02:53;;;;;;;5.57;1.50;;;;;;;17.84;45.43;102743.94;4997967;28;20623;-74
2024/02/20 04:05:18;;;;;;;6.38;1.63;;;;;;;17.64;45.48;102708.88;5000251;28;20041;-71
2024/02/20 04:07:45;;;;;;;6.47;1.85;;;;;;;17.73;45.52;102720.75;4999965;28;20025;-71
2024/02/20 04:10:12;;;;;;;6.00;1.60;;;;;;;17.75;45.26;102718.88;5000152;28;20057;-72
2024/02/20 04:12:38;;;;;;;6.22;1.73;;;;;;;17.79;45.30;102724.88;5000263;28;20080;-72
2024/02/20 04:15:05;;;;;;;5.70;1.60;;;;;;;17.85;45.29;102737.72;5000257;28;20124;-71
2024/02/20 04:17:31;;;;;;;6.78;1.50;;;;;;;17.69;45.53;102725.31;4999732;28;20478;-70
2024/02/20 04:19:56;;;;;;;4.70;1.60;;;;;;;17.76;45.14;102732.00;5000055;28;20040;-70
2024/02/20 04:22:21;;;;;;;5.88;2.10;;;;;;;17.79;45.39;102733.63;5000280;28;20511;-71
2024/02/20 04:24:46;;;;;;;7.40;1.75;;;;;;;17.80;45.38;102730.06;4998828;28;20053;-71
2024/02/20 04:27:12;;;;;;;6.22;1.67;;;;;;;17.72;45.16;102725.19;5000031;28;20034;-71
2024/02/20 04:29:37;;;;;;;8.60;1.80;;;;;;;17.75;45.35;102730.31;5000186;28;20037;-70
2024/02/20 04:32:02;;;;;;;5.72;1.90;;;;;;;17.69;45.27;102714.78;4999138;28;20041;-71
2024/02/20 04:34:28;;;;;;;5.22;1.58;;;;;;;17.79;45.31;102731.00;4999714;28;20040;-71
2024/02/20 04:36:53;;;;;;;5.93;1.77;;;;;;;17.72;45.30;102725.19;4982095;28;20033;-71
2024/02/20 04:39:18;;;;;;;6.38;1.75;;;;;;;17.79;45.13;102740.69;4999367;28;20111;-70
2024/02/20 04:41:43;;;;;;;6.78;1.70;;;;;;;17.75;45.09;102730.31;4999742;28;20037;-71
2024/02/20 04:44:09;;;;;;;6.93;2.07;;;;;;;17.70;45.10;102726.16;4982316;28;20029;-71
2024/02/20 04:46:34;;;;;;;8.43;1.73;;;;;;;17.74;45.47;102733.84;4998952;28;20644;-70
2024/02/20 04:48:59;;;;;;;6.20;1.85;;;;;;;17.76;45.07;102725.88;4999654;28;20121;-71
2024/02/20 04:51:25;;;;;;;7.32;1.73;;;;;;;17.59;45.22;102702.97;5000305;28;20045;-70
2024/02/20 04:53:50;;;;;;;7.30;1.55;;;;;;;17.79;45.49;102738.06;4980892;28;20034;-72
2024/02/20 04:56:15;;;;;;;6.55;2.00;;;;;;;17.66;45.20;102727.28;4999799;28;20073;-70
2024/02/20 04:58:41;;;;;;;5.78;1.58;;;;;;;17.71;45.30;102727.88;4998837;28;20406;-71
2024/02/20 05:01:07;;;;;;;7.43;2.03;;;;;;;17.76;45.13;102739.91;4980283;28;20034;-73
2024/02/20 05:03:32;;;;;;;6.07;2.10;;;;;;;17.73;45.36;102734.78;4998035;28;20117;-70
2024/02/20 05:05:58;;;;;;;7.75;1.83;;;;;;;17.75;45.27;102730.31;4998304;28;20041;-71
2024/02/20 05:08:23;;;;;;;6.35;1.73;;;;;;;17.66;45.39;102725.47;4999355;28;20040;-70
2024/02/20 05:10:48;;;;;;;7.32;2.00;;;;;;;17.70;45.31;102726.16;4999450;28;20471;-72
2024/02/20 05:13:13;;;;;;;5.78;1.77;;;;;;;17.76;45.21;102739.06;4999596;28;20034;-70
2024/02/20 05:15:39;;;;;;;4.32;1.40;;;;;;;17.67;45.30;102718.41;4999241;28;20041;-72
2024/02/20 05:18:05;;;;;;;5.53;1.67;;;;;;;17.71;45.44;102734.00;4998285;28;20129;-70
2024/02/20 05:20:30;;;;;;;6.85;1.95;;;;;;;17.62;45.27;102720.44;4998945;28;20041;-71
2024/02/20 05:22:55;;;;;;;7.40;1.90;;;;;;;17.68;45.32;102739.44;4998868;28;20033;-70
2024/02/20 05:25:21;;;;;;;5.70;1.48;;;;;;;17.70;45.26;102731.44;4999108;28;20061;-71
2024/02/20 05:27:46;;;;;;;6.28;1.63;;;;;;;17.74;44.91;102746.19;4997695;28;20117;-70
2024/02/20 05:30:12;;;;;;;6.82;1.90;;;;;;;17.58;45.25;102722.38;4981400;28;20034;-71
2024/02/20 05:32:37;;;;;;;7.60;2.20;;;;;;;17.72;45.46;102748.91;4981514;28;20045;-71
2024/02/20 05:35:05;;;;;;;6.93;2.00;;;;;;;17.67;45.42;102740.34;4998501;28;20480;-70
2024/02/20 05:37:31;;;;;;;6.22;2.00;;;;;;;17.69;45.45;102735.88;4998660;28;20507;-71
2024/02/20 05:39:56;;;;;;;6.25;1.70;;;;;;;17.49;45.50;102709.63;4999531;28;20030;-71
2024/02/20 05:42:21;;;;;;;5.70;1.75;;;;;;;17.57;45.34;102729.41;4998177;28;20506;-74
2024/02/20 05:44:47;;;;;;;5.30;1.55;;;;;;;17.60;45.07;102733.69;4999622;28;20072;-70
2024/02/20 05:47:12;;;;;;;7.22;1.70;;;;;;;17.68;45.39;102744.69;4999047;28;20117;-72
2024/02/20 05:49:37;;;;;;;7.28;1.85;;;;;;;17.63;45.36;102735.34;4998665;28;20707;-70
2024/02/20 05:52:03;;;;;;;5.38;1.42;;;;;;;17.65;45.47;102742.22;4996411;28;20408;-73
2024/02/20 05:54:28;;;;;;;7.50;2.17;;;;;;;17.70;45.26;102749.91;4998524;28;20506;-71
2024/02/20 05:56:53;;;;;;;5.32;1.60;;;;;;;17.61;45.37;102734.53;4997215;28;20030;-72
2024/02/20 05:59:19;;;;;;;6.03;1.90;;;;;;;17.64;45.58;102737.91;4998282;28;20072;-70
2024/02/20 06:01:44;;;;;;;6.18;1.88;;;;;;;17.54;45.64;102713.75;4996614;28;20057;-72
2024/02/20 06:04:10;;;;;;;7.10;1.85;;;;;;;17.69;45.62;102738.50;4979157;28;20125;-72
2024/02/20 06:06:36;;;;;;;6.22;1.52;;;;;;;17.54;45.81;102707.63;4998108;28;20022;-71
2024/02/20 06:09:02;;;;;;;6.47;1.50;;;;;;;17.71;45.87;102731.38;4998533;28;20483;-71
2024/02/20 06:11:27;;;;;;;6.18;1.60;;;;;;;17.63;45.85;102717.72;4998087;28;20765;-72
2024/02/20 06:13:53;;;;;;;5.63;1.45;;;;;;;17.81;46.16;102747.59;4983607;28;20026;-71
2024/02/20 06:16:20;;;;;;;6.43;1.50;;;;;;;17.80;46.03;102739.75;5001598;28;20479;-71
2024/02/20 06:18:45;;;;;;;6.07;1.50;;;;;;;17.73;45.92;102721.59;5000850;28;20396;-72
2024/02/20 06:21:11;;;;;;;4.85;1.55;;;;;;;17.89;46.14;102739.31;5001484;28;20095;-70
2024/02/20 06:23:37;;;;;;;5.40;1.20;;;;;;;17.75;45.91;102716.25;5000181;28;20037;-72
2024/02/20 06:26:03;;;;;;;5.00;1.23;;;;;;;17.89;45.90;102737.53;5001807;28;20030;-71
2024/02/20 06:28:28;;;;;;;5.65;1.95;;;;;;;17.84;45.92;102717.56;5001640;28;20030;-71
2024/02/20 06:30:55;;;;;;;4.68;1.42;;;;;;;17.85;45.82;102714.88;4983587;28;20198;-70
2024/02/20 06:33:21;;;;;;;6.80;1.80;;;;;;;17.91;45.68;102719.00;5000755;28;20044;-71
2024/02/20 06:35:46;;;;;;;4.70;1.65;;;;;;;18.00;45.84;102720.31;5001533;28;20038;-71
2024/02/20 06:38:11;;;;;;;4.93;1.50;;;;;;;17.86;45.83;102698.09;5000574;28;20030;-70
2024/02/20 06:40:37;;;;;;;5.97;1.30;;;;;;;18.03;45.72;102723.66;5001624;28;20088;-70
2024/02/20 06:43:02;;;;;;;5.80;1.65;;;;;;;17.95;45.80;102713.47;5001030;28;20077;-71
2024/02/20 06:45:27;;;;;;;5.32;1.50;;;;;;;18.05;45.81;102729.69;5000644;28;20037;-72
2024/02/20 06:47:53;;;;;;;6.03;1.88;;;;;;;18.10;45.79;102734.72;5000750;28;20037;-71
2024/02/20 06:50:19;;;;;;;6.28;2.15;;;;;;;18.13;45.67;102735.44;5001230;28;20383;-71
2024/02/20 06:52:44;;;;;;;6.53;1.77;;;;;;;18.10;45.88;102737.38;5000365;28;20513;-71
2024/02/20 06:55:09;;;;;;;6.20;1.50;;;;;;;18.13;45.66;102737.22;5000283;28;20041;-71
2024/02/20 06:57:37;;;;;;;4.78;1.20;;;;;;;18.08;45.41;102733.97;5001712;28;20328;-73
2024/02/20 07:00:03;;;;;;;6.13;1.70;;;;;;;18.13;45.47;102742.50;4999984;28;20468;-71
2024/02/20 07:02:29;;;;;;;5.00;1.40;;;;;;;18.10;45.74;102738.25;4999942;28;20049;-73
2024/02/20 07:04:54;;;;;;;6.35;1.70;;;;;;;18.20;45.62;102754.47;5000499;28;20049;-71
2024/02/20 07:07:20;;;;;;;5.78;1.73;;;;;;;18.10;45.52;102738.25;5000815;28;20034;-71
2024/02/20 07:09:45;;;;;;;5.45;1.60;;;;;;;18.13;45.71;102745.13;5001341;28;20029;-71
2024/02/20 07:12:11;;;;;;;5.97;1.83;;;;;;;18.21;45.74;102750.03;4999627;28;20030;-72
2024/02/20 07:14:37;;;;;;;5.63;1.67;;;;;;;18.24;45.79;102753.34;4999883;28;20424;-70
2024/02/20 07:17:02;;;;;;;5.00;1.60;;;;;;;18.23;45.66;102753.41;4999781;28;20050;-70
2024/02/20 07:19:27;;;;;;;7.03;1.80;;;;;;;18.23;45.48;102750.78;5001292;28;20483;-71
2024/02/20 07:21:52;;;;;;;6.28;1.45;;;;;;;18.23;45.71;102746.38;4999479;28;20114;-71
2024/02/20 07:24:18;;;;;;;5.32;1.48;;;;;;;18.22;45.66;102741.19;4999917;28;20120;-71
2024/02/20 07:26:45;;;;;;;5.15;1.88;;;;;;;18.20;45.86;102746.53;4999911;28;20471;-72
2024/02/20 07:29:10;;;;;;;4.55;1.80;;;;;;;18.25;45.63;102748.94;4982510;28;21052;-73
2024/02/20 07:31:36;;;;;;;5.63;1.63;;;;;;;18.17;45.45;102737.94;4999884;28;20037;-70
2024/02/20 07:34:01;;;;;;;5.35;1.67;;;;;;;18.23;45.62;102746.38;4999113;28;20034;-73
2024/02/20 07:36:27;;;;;;;7.68;1.98;;;;;;;18.20;45.80;102748.31;5000616;28;20761;-72
2024/02/20 07:38:52;;;;;;;4.80;1.40;;;;;;;18.15;45.71;102734.50;4998282;28;20125;-71
2024/02/20 07:41:17;;;;;;;5.47;1.75;;;;;;;18.16;45.70;102739.69;4999476;28;20038;-72
2024/02/20 07:43:43;;;;;;;5.07;1.80;;;;;;;18.09;45.62;102727.78;4999302;28;20030;-71
2024/02/20 07:46:09;;;;;;;6.53;1.67;;;;;;;18.20;45.42;102745.66;4999636;28;20034;-72
2024/02/20 07:48:34;;;;;;;4.85;1.40;;;;;;;18.21;45.55;102752.66;4999789;28;20120;-71
2024/02/20 07:51:00;;;;;;;5.68;2.08;;;;;;;18.04;45.60;102719.22;5000377;28;20511;-70
2024/02/20 07:53:25;;;;;;;5.93;1.70;;;;;;;18.21;45.49;102742.09;5000446;28;20529;-71
2024/02/20 07:55:50;;;;;;;5.15;1.45;;;;;;;18.04;45.49;102720.09;4982273;28;20031;-70
2024/02/20 07:58:15;;;;;;;5.20;1.60;;;;;;;18.23;45.66;102758.69;4999941;28;20034;-70
2024/02/20 08:00:41;;;;;;;5.15;1.80;;;;;;;18.22;45.32;102752.59;5000352;28;20030;-70
2024/02/20 08:03:06;;;;;;;5.97;1.58;;;;;;;18.10;45.55;102719.78;4978967;28;20037;-71
2024/02/20 08:05:32;;;;;;;5.25;1.52;;;;;;;18.11;45.60;102729.38;4999424;28;20026;-72
2024/02/20 08:07:57;;;;;;;5.82;2.25;;;;;;;18.15;45.45;102730.09;4999293;28;20042;-70
2024/02/20 08:10:22;;;;;;;6.97;1.63;;;;;;;18.22;45.70;102744.66;4999444;28;20129;-72
2024/02/20 08:12:48;;;;;;;6.47;1.83;;;;;;;18.00;45.69;102705.34;4998419;28;20025;-71
2024/02/20 08:15:13;;;;;;;7.47;2.05;;;;;;;18.21;45.61;102737.66;5000280;28;20042;-71
2024/02/20 08:17:40;;;;;;;5.85;2.10;;;;;;;18.10;45.34;102714.50;4999066;28;20385;-73
2024/02/20 08:20:06;;;;;;;6.53;2.38;;;;;;;18.19;45.62;102734.25;4999861;28;20916;-72
2024/02/20 08:22:31;;;;;;;7.07;2.30;;;;;;;18.10;45.63;102724.19;4999332;28;20030;-70
2024/02/20 08:24:57;;;;;;;6.20;2.15;;;;;;;18.21;45.70;102735.03;4999118;28;20205;-72
2024/02/20 08:27:23;;;;;;;7.95;2.10;;;;;;;18.12;45.67;102717.06;4997804;28;20061;-71
2024/02/20 08:29:48;;;;;;;7.15;2.13;;;;;;;18.20;45.70;102738.63;4999065;28;20045;-71
2024/02/20 08:32:14;;;;;;;7.75;2.35;;;;;;;18.13;46.11;102731.94;4997551;28;20034;-73
2024/02/20 08:34:39;;;;;;;5.53;2.00;;;;;;;18.13;45.89;102730.19;4999151;28;20046;-72
2024/02/20 08:37:05;;;;;;;6.93;1.92;;;;;;;18.11;46.13;102720.63;4980493;28;20045;-72
2024/02/20 08:39:30;;;;;;;8.55;2.13;;;;;;;18.11;46.32;102728.53;4999495;28;20483;-72
2024/02/20 08:41:55;;;;;;;6.43;2.15;;;;;;;18.13;46.49;102737.22;4999705;28;20033;-72
2024/02/20 08:44:23;;;;;;;5.63;2.28;;;;;;;18.05;46.33;102724.41;4999366;28;20382;-71
2024/02/20 08:46:49;;;;;;;7.05;2.30;;;;;;;18.13;46.41;102734.56;4998892;28;20036;-72
2024/02/20 08:49:14;;;;;;;6.63;1.95;;;;;;;18.15;46.52;102737.13;5000357;28;20046;-72
2024/02/20 08:51:40;;;;;;;6.20;1.80;;;;;;;18.18;46.76;102744.91;4999211;28;20696;-72
2024/02/20 08:54:05;;;;;;;6.07;1.77;;;;;;;18.17;46.75;102743.22;4999688;28;20121;-71
2024/02/20 08:56:30;;;;;;;7.35;2.25;;;;;;;18.27;46.47;102755.84;4999861;28;20930;-71
2024/02/20 08:58:55;;;;;;;5.53;2.00;;;;;;;18.30;46.93;102758.31;4999091;28;20476;-71
2024/02/20 09:01:24;;;;;;;6.10;1.92;;;;;;;18.23;47.08;102745.50;4999241;28;20562;-72
2024/02/20 09:03:51;;;;;;;6.63;2.33;;;;;;;18.22;47.14;102749.09;4993593;28;20550;-68
2024/02/20 09:06:17;;;;;;;5.65;2.17;;;;;;;18.22;47.17;102752.59;4994696;28;20472;-69
2024/02/20 09:08:42;;;;;;;6.90;2.58;;;;;;;18.24;47.08;102752.50;4997274;28;20041;-68
2024/02/20 09:11:07;;;;;;;8.10;2.40;;;;;;;18.25;46.67;102756.88;4998076;28;20117;-70
2024/02/20 09:13:34;;;;;;;7.20;2.55;;;;;;;18.25;46.98;102751.59;4995576;28;20099;-68
2024/02/20 09:15:59;;;;;;;5.97;2.05;;;;;;;18.34;46.93;102777.50;4997536;28;20036;-69
2024/02/20 09:18:25;;;;;;;7.85;2.05;;;;;;;18.22;46.97;102754.38;4980892;28;20057;-69
2024/02/20 09:20:51;;;;;;;6.95;2.33;;;;;;;18.26;47.01;102761.19;4998149;28;20042;-69
2024/02/20 09:23:16;;;;;;;7.03;2.22;;;;;;;18.34;46.93;102774.88;4993997;28;20113;-70
2024/02/20 09:25:43;;;;;;;7.47;2.40;;;;;;;18.25;46.80;102757.69;4978451;28;20213;-74
2024/02/20 09:28:09;;;;;;;7.75;2.70;;;;;;;18.33;46.98;102765.22;4996880;28;20030;-75
2024/02/20 09:30:34;;;;;;;8.05;2.40;;;;;;;18.31;46.87;102760.03;4998287;28;20037;-70
2024/02/20 09:32:59;;;;;;;7.70;2.97;;;;;;;18.30;46.88;102750.38;4997685;28;20112;-73
2024/02/20 09:35:25;;;;;;;7.50;2.37;;;;;;;18.26;46.70;102754.16;4996325;28;20267;-71
2024/02/20 09:37:50;;;;;;;9.57;2.25;;;;;;;18.30;46.71;102766.22;4997198;28;20736;-72
2024/02/20 09:40:19;;;;;;;7.78;2.70;;;;;;;18.37;46.61;102769.41;4998239;28;20026;-74
2024/02/20 09:42:48;;;;;;;8.75;2.72;;;;;;;18.39;46.79;102767.56;4998259;28;20034;-68
2024/02/20 09:45:19;;;;;;;7.93;2.28;;;;;;;18.40;46.82;102763.13;4997600;28;20520;-67
2024/02/20 09:47:48;;;;;;;8.77;2.65;;;;;;;18.33;46.57;102754.66;4997513;28;20079;-71
2024/02/20 09:50:17;;;;;;;8.30;2.40;;;;;;;18.41;46.80;102760.41;5000424;28;20061;-71
2024/02/20 09:52:56;;;;;;;7.50;2.38;;;;;;;18.31;46.80;102748.63;5001719;28;20113;-75
2024/02/20 09:55:24;;;;;;;8.95;2.25;;;;;;;18.35;46.78;102752.78;5000527;28;20594;-80
2024/02/20 09:57:50;;;;;;;7.97;2.40;;;;;;;18.36;46.96;102749.22;4984184;28;20042;-72
2024/02/20 10:00:17;;;;;;;7.18;2.55;;;;;;;18.44;46.78;102759.41;5001873;28;20117;-72
2024/02/20 10:02:44;;;;;;;10.93;2.97;;;;;;;18.30;46.92;102733.72;4997332;28;20112;-72
2024/02/20 10:05:15;;;;;;;6.93;2.20;;;;;;;18.36;46.79;102746.59;5000032;28;20061;-76
2024/02/20 10:07:40;;;;;;;14.23;2.88;;;;;;;18.44;46.81;102764.69;4982651;28;20040;-73
2024/02/20 10:10:10;;;;;;;9.88;2.75;;;;;;;18.33;46.87;102744.13;5000086;28;20065;-73
2024/02/20 10:12:36;;;;;;;9.63;3.00;;;;;;;18.36;46.85;102743.06;5002050;28;20135;-70
2024/02/20 10:15:06;;;;;;;6.30;2.08;;;;;;;18.34;46.91;102734.41;5000811;28;20483;-70
2024/02/20 10:17:31;;;;;;;7.65;2.22;;;;;;;18.36;47.04;102737.81;4998160;28;20090;-74
2024/02/20 10:20:13;;;;;;;11.25;2.40;;;;;;;18.45;46.73;102747.88;5000176;28;20474;-71
2024/02/20 10:22:40;;;;;;;6.82;2.50;;;;;;;18.34;46.84;102719.44;4983417;28;20064;-71
2024/02/20 10:25:12;;;;;;;6.88;2.28;;;;;;;18.45;46.81;102740.84;4980922;28;20034;-73
2024/02/20 10:27:37;;;;;;;7.63;2.58;;;;;;;18.41;46.90;102727.88;5001180;28;20124;-72
2024/02/20 10:30:05;;;;;;;7.05;2.72;;;;;;;18.35;46.93;102722.91;4982643;28;20149;-72
2024/02/20 10:32:34;;;;;;;7.88;2.70;;;;;;;18.33;46.90;102714.25;4984071;28;20037;-74
2024/02/20 10:35:01;;;;;;;9.55;2.75;;;;;;;18.38;46.60;102718.31;5001172;28;20037;-71
2024/02/20 10:37:27;;;;;;;6.63;2.40;;;;;;;18.36;46.70;102724.59;4983216;28;20057;-72
2024/02/20 10:40:12;;;;;;;9.90;2.85;;;;;;;18.42;46.83;102727.81;5000744;28;20141;-76
2024/02/20 10:42:39;;;;;;;7.38;2.65;;;;;;;18.36;46.84;102717.56;5001158;28;20034;-74
2024/02/20 10:45:10;;;;;;;8.73;2.55;;;;;;;18.31;46.95;102704.59;4998999;28;20033;-77
2024/02/20 10:47:45;;;;;;;9.00;2.58;;;;;;;18.46;46.99;102731.13;5000229;28;20384;-73
2024/02/20 10:50:13;;;;;;;8.68;2.58;;;;;;;18.33;46.86;102703.69;5000347;28;20033;-77
2024/02/20 10:52:39;;;;;;;9.02;2.58;;;;;;;18.43;47.01;102731.28;4999593;28;20507;-72
2024/02/20 10:55:12;;;;;;;9.60;2.67;;;;;;;18.33;47.07;102699.25;5000187;28;20026;-76
2024/02/20 10:57:39;;;;;;;8.57;2.20;;;;;;;18.34;46.89;102705.38;4999713;28;20041;-75
2024/02/20 11:00:10;;;;;;;7.95;2.30;;;;;;;18.35;46.68;102691.25;4998470;28;20040;-77
2024/02/20 11:02:37;;;;;;;9.73;2.72;;;;;;;18.31;46.93;102685.28;4998530;28;20447;-71
2024/02/20 11:05:06;;;;;;;8.98;2.28;;;;;;;18.41;46.88;102702.31;4997638;28;20458;-75
2024/02/20 11:07:33;;;;;;;8.35;2.78;;;;;;;18.46;46.84;102716.13;4999822;28;20044;-72
2024/02/20 11:10:10;;;;;;;11.40;3.40;;;;;;;18.33;46.73;102683.41;4999774;28;20042;-71
2024/02/20 11:12:36;;;;;;;13.25;3.30;;;;;;;18.33;46.83;102679.91;4999229;28;20100;-69
2024/02/20 11:15:11;;;;;;;6.32;2.13;;;;;;;18.37;46.64;102692.00;4999865;28;20041;-68
2024/02/20 11:17:38;;;;;;;8.60;2.47;;;;;;;18.40;46.96;102700.59;4999434;28;20066;-73
2024/02/20 11:20:13;;;;;;;10.50;3.30;;;;;;;18.36;47.08;102682.38;4996626;28;20030;-73